Terminal Aerodrome Forecast
Issued by NWS Miami, FL

Home | Current Version | Previous Version | Text Only | Print | Product List | Glossary On
Versions: 1 2 3 4 5 6 7 8 9 10 11 12 13 14 15 16 17 18 19 20 21 22 23 24 25
000
FTUS42 KMFL 060928 AAA
TAFFLL
TAF AMD
KFLL 060928Z 0609/0706 18007KT P6SM FEW019
      TEMPO 0609/0612 BKN020
     FM061400 19015G25KT P6SM VCSH SCT025 BKN050 BKN200
     FM062200 21011KT P6SM VCSH SCT020 BKN035 BKN080
     FM070200 VRB05KT P6SM VCSH SCT020 BKN080 BKN250=

USA.gov is the U.S. government's official web portal to all federal, state and local government web resources and services.